createdAt,value
2022-08-30T00:01:46.739Z,101413.06
2022-08-30T00:03:52.127Z,101374.44
2022-08-30T00:05:56.339Z,101516.97
2022-08-30T00:07:59.895Z,101414.00
2022-08-30T00:10:03.832Z,101449.25
2022-08-30T00:12:06.667Z,101519.94
2022-08-30T00:14:09.266Z,101503.13
2022-08-30T00:16:12.536Z,101419.25
2022-08-30T00:18:18.236Z,101513.25
2022-08-30T00:20:25.907Z,101532.53
2022-08-30T00:22:28.485Z,101506.03
2022-08-30T00:24:31.107Z,101494.88
2022-08-30T00:26:33.670Z,101532.06
2022-08-30T00:28:37.421Z,101526.72
2022-08-30T00:30:40.720Z,101529.44
2022-08-30T00:32:43.724Z,101507.97
2022-08-30T00:34:46.301Z,101480.19
2022-08-30T00:36:48.961Z,101501.13
2022-08-30T00:38:51.517Z,101400.38
2022-08-30T00:40:54.307Z,101491.91
2022-08-30T00:42:59.943Z,101530.25
2022-08-30T00:45:14.827Z,101528.91
2022-08-30T00:47:18.470Z,101429.84
2022-08-30T00:49:21.085Z,101368.16
2022-08-30T00:51:26.056Z,101402.00
2022-08-30T00:53:35.047Z,101536.00
2022-08-30T00:55:38.988Z,101514.53
2022-08-30T00:57:47.083Z,101534.25
2022-08-30T00:59:51.003Z,101497.34
2022-08-30T01:01:53.987Z,101433.16
2022-08-30T01:03:56.856Z,101522.44
2022-08-30T01:06:03.193Z,101538.50
2022-08-30T01:08:06.310Z,101547.47
2022-08-30T01:10:12.443Z,101465.84
2022-08-30T01:12:15.021Z,101504.91
2022-08-30T01:14:22.156Z,101502.81
2022-08-30T01:16:32.573Z,101545.13
2022-08-30T01:18:36.275Z,101513.03
2022-08-30T01:21:40.296Z,101543.59
2022-08-30T01:23:47.469Z,101547.94
2022-08-30T01:25:50.854Z,101421.44
2022-08-30T01:28:04.140Z,101541.63
2022-08-30T01:30:08.284Z,101518.97
2022-08-30T01:32:29.178Z,101537.50
2022-08-30T01:34:32.114Z,101437.06
2022-08-30T01:36:37.745Z,101540.72
2022-08-30T01:38:54.965Z,101544.19
2022-08-30T01:41:35.082Z,101532.69
2022-08-30T01:43:37.877Z,101326.09
2022-08-30T01:45:41.130Z,101493.75
2022-08-30T01:47:43.867Z,101507.16
2022-08-30T01:49:48.078Z,101541.81
2022-08-30T01:52:00.548Z,101510.84
2022-08-30T01:54:04.545Z,101533.28
2022-08-30T01:56:08.871Z,101527.38
2022-08-30T01:58:11.751Z,101501.13
2022-08-30T02:00:14.963Z,101434.84
2022-08-30T02:02:21.916Z,101528.88
2022-08-30T02:04:26.480Z,101499.41
2022-08-30T02:06:29.368Z,101518.66
2022-08-30T02:08:31.999Z,101539.69
2022-08-30T02:10:37.230Z,101510.03
2022-08-30T02:12:39.794Z,101401.09
2022-08-30T02:14:42.526Z,101398.94
2022-08-30T02:16:47.438Z,101404.00
2022-08-30T02:18:52.281Z,101437.84
2022-08-30T02:20:54.872Z,101433.84
2022-08-30T02:23:01.159Z,101520.09
2022-08-30T02:25:07.141Z,101522.56
2022-08-30T02:27:21.035Z,101479.59
2022-08-30T02:29:24.758Z,101514.03
2022-08-30T02:31:27.337Z,101511.09
2022-08-30T02:33:30.019Z,101413.94
2022-08-30T02:35:32.645Z,101439.50
2022-08-30T02:37:35.692Z,101387.19
2022-08-30T02:39:38.312Z,101511.09
2022-08-30T02:41:42.005Z,101395.97
2022-08-30T02:43:44.640Z,101481.19
2022-08-30T02:45:47.471Z,101473.69
2022-08-30T02:47:50.258Z,101504.66
2022-08-30T02:49:54.903Z,101498.22
2022-08-30T02:51:57.671Z,101509.09
2022-08-30T02:54:00.305Z,101524.06
2022-08-30T02:56:03.298Z,101404.75
2022-08-30T02:58:06.770Z,101467.00
2022-08-30T03:00:13.429Z,101508.94
2022-08-30T03:02:16.914Z,101431.00
2022-08-30T03:04:26.668Z,101523.38
2022-08-30T03:06:29.682Z,101385.88
2022-08-30T03:08:33.036Z,101531.91
2022-08-30T03:10:36.174Z,101505.03
2022-08-30T03:12:38.775Z,101386.75
2022-08-30T03:14:41.398Z,101451.84
2022-08-30T03:16:43.984Z,101418.50
2022-08-30T03:18:46.697Z,101412.22
2022-08-30T03:20:54.524Z,101516.16
2022-08-30T03:22:57.382Z,101426.19
2022-08-30T03:25:01.498Z,101489.44
2022-08-30T03:27:04.341Z,101481.94
2022-08-30T03:29:07.196Z,101425.03
2022-08-30T03:31:10.510Z,101423.66
2022-08-30T03:33:13.340Z,101448.75
2022-08-30T03:35:24.213Z,101408.66
2022-08-30T03:37:27.853Z,101415.00
2022-08-30T03:39:30.572Z,101520.75
2022-08-30T03:41:33.797Z,101514.84
2022-08-30T03:43:36.888Z,101529.09
2022-08-30T03:45:39.826Z,101532.03
2022-08-30T03:47:42.949Z,101445.69
2022-08-30T03:49:45.597Z,101397.41
2022-08-30T03:51:48.710Z,101524.06
2022-08-30T03:53:51.352Z,101526.22
2022-08-30T03:55:54.187Z,101420.13
2022-08-30T03:57:58.040Z,101494.06
2022-08-30T04:00:00.813Z,101435.22
2022-08-30T04:02:14.107Z,101502.00
2022-08-30T04:04:20.736Z,101410.41
2022-08-30T04:06:24.399Z,101466.19
2022-08-30T04:08:27.437Z,101505.72
2022-08-30T04:10:30.063Z,101471.00
2022-08-30T04:12:32.640Z,101467.50
2022-08-30T04:14:35.247Z,101542.81
2022-08-30T04:16:37.890Z,101474.44
2022-08-30T04:18:40.641Z,101462.19
2022-08-30T04:20:43.587Z,101508.88
2022-08-30T04:22:46.500Z,101542.72
2022-08-30T04:24:49.296Z,101514.53
2022-08-30T04:26:51.951Z,101534.97
2022-08-30T04:28:58.278Z,101456.41
2022-08-30T04:31:01.738Z,101460.88
2022-08-30T04:33:04.367Z,101554.94
2022-08-30T04:35:07.667Z,101545.00
2022-08-30T04:37:10.382Z,101392.47
2022-08-30T04:39:13.237Z,101507.66
2022-08-30T04:41:19.527Z,101563.53
2022-08-30T04:43:22.166Z,101408.13
2022-08-30T04:45:24.860Z,101558.63
2022-08-30T04:47:27.617Z,101449.63
2022-08-30T04:49:32.991Z,101461.16
2022-08-30T04:51:35.590Z,101437.22
2022-08-30T04:53:38.183Z,101531.56
2022-08-30T04:55:42.105Z,101551.44
2022-08-30T04:57:51.210Z,101499.59
2022-08-30T04:59:54.642Z,101535.81
2022-08-30T05:01:57.260Z,101575.16
2022-08-30T05:04:00.326Z,101564.03
2022-08-30T05:06:03.292Z,101568.06
2022-08-30T05:08:11.600Z,101450.47
2022-08-30T05:10:29.705Z,101540.03
2022-08-30T05:12:32.314Z,101556.16
2022-08-30T05:14:34.904Z,101556.22
2022-08-30T05:16:37.827Z,101559.25
2022-08-30T05:18:40.514Z,101561.47
2022-08-30T05:20:43.872Z,101572.41
2022-08-30T05:22:53.671Z,101576.72
2022-08-30T05:24:56.959Z,101575.16
2022-08-30T05:27:08.438Z,101554.59
2022-08-30T05:29:11.028Z,101564.22
2022-08-30T05:31:36.395Z,101600.25
2022-08-30T05:33:39.096Z,101492.47
2022-08-30T05:35:41.760Z,101587.50
2022-08-30T05:37:44.814Z,101577.88
2022-08-30T05:39:51.191Z,101465.84
2022-08-30T05:41:57.836Z,101562.97
2022-08-30T05:44:09.342Z,101596.09
2022-08-30T05:46:14.801Z,101568.31
2022-08-30T05:48:17.618Z,101570.22
2022-08-30T05:50:20.629Z,101442.50
2022-08-30T05:52:23.285Z,101549.72
2022-08-30T05:54:25.870Z,101588.41
2022-08-30T05:56:35.262Z,101598.28
2022-08-30T05:58:38.522Z,101483.63
2022-08-30T06:00:42.190Z,101506.84
2022-08-30T06:02:45.005Z,101480.97
2022-08-30T06:04:47.683Z,101555.06
2022-08-30T06:06:50.290Z,101485.75
2022-08-30T06:08:55.714Z,101566.50
2022-08-30T06:10:58.433Z,101605.38
2022-08-30T06:13:01.060Z,101470.28
2022-08-30T06:15:04.180Z,101425.53
2022-08-30T06:17:07.644Z,101456.41
2022-08-30T06:19:15.070Z,101594.44
2022-08-30T06:21:30.472Z,101609.59
2022-08-30T06:23:33.387Z,101596.28
2022-08-30T06:25:41.116Z,101600.50
2022-08-30T06:27:44.929Z,101562.63
2022-08-30T06:29:52.384Z,101494.66
2022-08-30T06:31:57.456Z,101575.84
2022-08-30T06:34:00.481Z,101612.03
2022-08-30T06:36:12.815Z,101602.94
2022-08-30T06:38:15.609Z,101556.84
2022-08-30T06:40:21.793Z,101599.41
2022-08-30T06:42:30.634Z,101605.75
2022-08-30T06:44:33.356Z,101544.63
2022-08-30T06:46:39.078Z,101603.94
2022-08-30T06:48:57.216Z,101555.13
2022-08-30T06:51:00.002Z,101606.09
2022-08-30T06:53:05.930Z,101492.28
2022-08-30T06:55:11.452Z,101608.72
2022-08-30T06:57:14.175Z,101608.16
2022-08-30T06:59:17.712Z,101611.22
2022-08-30T07:01:25.959Z,101613.56
2022-08-30T07:03:28.656Z,101486.66
2022-08-30T07:05:31.461Z,101527.50
2022-08-30T07:07:34.953Z,101590.09
2022-08-30T07:09:43.274Z,101592.75
2022-08-30T07:11:45.963Z,101498.44
2022-08-30T07:13:48.581Z,101504.53
2022-08-30T07:15:52.308Z,101571.69
2022-08-30T07:18:13.329Z,101520.16
2022-08-30T07:20:16.354Z,101506.91
2022-08-30T07:22:18.938Z,101578.19
2022-08-30T07:24:22.476Z,101527.09
2022-08-30T07:26:55.476Z,101621.81
2022-08-30T07:28:58.103Z,101603.31
2022-08-30T07:31:01.013Z,101506.09
2022-08-30T07:33:04.069Z,101631.28
2022-08-30T07:35:07.069Z,101584.84
2022-08-30T07:37:09.803Z,101624.34
2022-08-30T07:39:20.892Z,101591.00
2022-08-30T07:41:30.329Z,101546.38
2022-08-30T07:43:34.077Z,101640.03
2022-08-30T07:45:38.509Z,101541.59
2022-08-30T07:47:41.579Z,101615.47
2022-08-30T07:49:44.183Z,101612.34
2022-08-30T07:51:46.767Z,101567.41
2022-08-30T07:53:57.417Z,101619.53
2022-08-30T07:56:00.033Z,101568.91
2022-08-30T08:00:10.795Z,101630.09
2022-08-30T08:02:16.421Z,101607.66
2022-08-30T08:04:19.597Z,101614.09
2022-08-30T08:06:23.574Z,101612.56
2022-08-30T08:08:26.200Z,101614.94
2022-08-30T08:10:28.875Z,101598.03
2022-08-30T08:12:31.754Z,101597.53
2022-08-30T08:14:34.943Z,101626.75
2022-08-30T08:16:38.260Z,101648.91
2022-08-30T08:18:40.828Z,101539.53
2022-08-30T08:20:43.419Z,101542.03
2022-08-30T08:22:46.087Z,101606.28
2022-08-30T08:24:49.709Z,101530.97
2022-08-30T08:26:52.293Z,101523.66
2022-08-30T08:28:55.845Z,101640.44
2022-08-30T08:30:58.424Z,101597.06
2022-08-30T08:33:01.806Z,101568.66
2022-08-30T08:35:04.911Z,101631.22
2022-08-30T08:37:07.458Z,101548.47
2022-08-30T08:39:10.363Z,101638.69
2022-08-30T08:41:52.224Z,101628.84
2022-08-30T08:43:54.928Z,101612.97
2022-08-30T08:46:28.797Z,101666.66
2022-08-30T08:49:22.569Z,101673.09
2022-08-30T08:51:50.672Z,101640.63
2022-08-30T08:54:34.302Z,101665.97
2022-08-30T08:56:37.769Z,101580.44
2022-08-30T08:59:08.420Z,101583.72
2022-08-30T09:01:13.893Z,101640.78
2022-08-30T09:03:18.957Z,101622.06
2022-08-30T09:05:26.079Z,101648.34
2022-08-30T09:07:37.460Z,101663.97
2022-08-30T09:09:41.553Z,101645.34
2022-08-30T09:11:44.555Z,101614.41
2022-08-30T09:13:47.256Z,101676.78
2022-08-30T09:18:19.348Z,101560.13
2022-08-30T09:20:45.835Z,101664.06
2022-08-30T09:22:48.484Z,101522.91
2022-08-30T09:25:18.073Z,101660.78
2022-08-30T09:27:40.026Z,101650.56
2022-08-30T09:29:59.193Z,101645.72
2022-08-30T09:32:22.572Z,101641.75
2022-08-30T09:34:24.406Z,101629.22
2022-08-30T09:36:32.910Z,101601.91
2022-08-30T09:38:35.995Z,101615.75
2022-08-30T09:40:51.991Z,101651.91
2022-08-30T09:43:17.435Z,101648.50
2022-08-30T09:45:36.559Z,101647.72
2022-08-30T09:47:43.216Z,101646.72
2022-08-30T09:49:45.884Z,101561.44
2022-08-30T09:52:01.942Z,101636.03
2022-08-30T09:55:20.731Z,101651.84
2022-08-30T09:58:30.033Z,101634.34
2022-08-30T10:00:41.365Z,101612.84
2022-08-30T10:03:11.981Z,101634.59
2022-08-30T10:05:58.685Z,101639.28
2022-08-30T10:08:19.628Z,101596.59
2022-08-30T10:10:34.294Z,101641.63
2022-08-30T10:13:46.330Z,101638.53
2022-08-30T10:15:58.782Z,101632.91
2022-08-30T10:18:23.637Z,101634.34
2022-08-30T10:20:31.998Z,101523.59
2022-08-30T10:22:46.612Z,101626.78
2022-08-30T10:25:00.786Z,101599.88
2022-08-30T10:27:32.530Z,101622.78
2022-08-30T10:30:05.966Z,101621.56
2022-08-30T10:32:24.950Z,101628.53
2022-08-30T10:34:49.669Z,101616.78
2022-08-30T10:37:13.694Z,101620.03
2022-08-30T10:39:32.341Z,101617.22
2022-08-30T10:41:41.837Z,101606.78
2022-08-30T10:43:53.850Z,101616.34
2022-08-30T10:46:02.598Z,101599.84
2022-08-30T10:48:20.423Z,101616.47
2022-08-30T10:50:37.130Z,101611.97
2022-08-30T10:52:53.282Z,101601.81
2022-08-30T10:55:36.848Z,101620.31
2022-08-30T10:58:31.842Z,101625.31
2022-08-30T11:01:16.192Z,101589.81
2022-08-30T11:03:42.989Z,101621.97
2022-08-30T11:06:26.286Z,101620.56
2022-08-30T11:09:09.352Z,101612.13
2022-08-30T11:11:51.481Z,101593.81
2022-08-30T11:13:57.253Z,101590.31
2022-08-30T11:16:06.880Z,101486.88
2022-08-30T11:18:09.489Z,101611.31
2022-08-30T11:20:42.979Z,101582.00
2022-08-30T11:23:25.628Z,101602.88
2022-08-30T11:26:03.080Z,101575.44
2022-08-30T11:28:06.449Z,101597.16
2022-08-30T11:30:27.423Z,101619.47
2022-08-30T11:33:08.340Z,101607.09
2022-08-30T11:35:50.054Z,101606.34
2022-08-30T11:37:52.667Z,101519.25
2022-08-30T11:40:01.916Z,101591.59
2022-08-30T11:42:31.818Z,101598.06
2022-08-30T11:44:34.772Z,101593.50
2022-08-30T11:46:41.533Z,101577.75
2022-08-30T11:49:01.416Z,101571.28
2022-08-30T11:51:18.418Z,101572.06
2022-08-30T11:53:34.187Z,101607.22
2022-08-30T11:56:33.491Z,101602.22
2022-08-30T11:58:48.204Z,101602.72
2022-08-30T12:01:50.252Z,101575.03
2022-08-30T12:04:15.193Z,101550.16
2022-08-30T12:06:40.456Z,101602.63
2022-08-30T12:08:55.140Z,101597.56
2022-08-30T12:11:10.933Z,101595.75
2022-08-30T12:13:53.868Z,101572.19
2022-08-30T12:16:05.272Z,101571.38
2022-08-30T12:18:29.427Z,101591.69
2022-08-30T12:20:47.984Z,101584.22
2022-08-30T12:22:52.356Z,101566.50
2022-08-30T12:24:55.475Z,101583.84
2022-08-30T12:26:59.118Z,101568.22
2022-08-30T12:29:19.503Z,101570.69
2022-08-30T12:31:26.716Z,101577.84
2022-08-30T12:33:41.475Z,101573.84
2022-08-30T12:35:44.834Z,101476.22
2022-08-30T12:38:05.430Z,101574.75
2022-08-30T12:40:22.303Z,101515.47
2022-08-30T12:42:30.738Z,101568.19
2022-08-30T12:44:34.062Z,101566.28
2022-08-30T12:46:37.080Z,101507.09
2022-08-30T12:48:40.932Z,101546.91
2022-08-30T12:50:54.895Z,101507.97
2022-08-30T12:53:13.966Z,101548.16
2022-08-30T12:55:22.771Z,101552.25
2022-08-30T12:58:00.900Z,101403.75
2022-08-30T13:00:08.369Z,101549.09
2022-08-30T13:02:27.689Z,101498.19
2022-08-30T13:04:30.375Z,101497.59
2022-08-30T13:06:50.936Z,101536.19
2022-08-30T13:08:54.596Z,101512.28
2022-08-30T13:11:15.767Z,101536.53
2022-08-30T13:13:44.332Z,101503.44
2022-08-30T13:15:49.443Z,101518.28
2022-08-30T13:18:30.113Z,101485.63
2022-08-30T13:20:32.894Z,101532.56
2022-08-30T13:22:41.818Z,101510.22
2022-08-30T13:24:44.779Z,101525.16
2022-08-30T13:26:48.109Z,101466.50
2022-08-30T13:29:01.386Z,101531.47
2022-08-30T13:31:04.025Z,101476.44
2022-08-30T13:33:10.063Z,101513.72
2022-08-30T13:35:13.365Z,101484.25
2022-08-30T13:39:45.625Z,101484.53
2022-08-30T13:41:49.804Z,101447.72
2022-08-30T13:44:11.681Z,101506.69
2022-08-30T13:46:17.161Z,101412.09
2022-08-30T13:48:25.222Z,101434.03
2022-08-30T13:50:32.526Z,101491.34
2022-08-30T13:52:35.195Z,101493.97
2022-08-30T13:54:37.799Z,101455.22
2022-08-30T13:56:40.830Z,101508.34
2022-08-30T13:58:43.499Z,101509.63
2022-08-30T14:00:49.494Z,101521.06
2022-08-30T14:02:57.608Z,101399.66
2022-08-30T14:05:03.424Z,101514.94
2022-08-30T14:07:20.015Z,101472.63
2022-08-30T14:09:23.505Z,101401.59
2022-08-30T14:11:26.243Z,101510.47
2022-08-30T14:13:29.462Z,101328.03
2022-08-30T14:15:33.415Z,101496.66
2022-08-30T14:17:36.125Z,101496.28
2022-08-30T14:19:38.790Z,101444.13
2022-08-30T14:21:42.446Z,101513.47
2022-08-30T14:23:45.731Z,101439.34
2022-08-30T14:25:48.313Z,101473.78
2022-08-30T14:27:53.392Z,101422.63
2022-08-30T14:29:57.324Z,101422.47
2022-08-30T14:32:00.542Z,101495.09
2022-08-30T14:34:04.191Z,101474.69
2022-08-30T14:36:15.277Z,101393.25
2022-08-30T14:38:18.693Z,101413.00
2022-08-30T14:40:21.987Z,101508.59
2022-08-30T14:42:24.665Z,101401.22
2022-08-30T14:44:27.803Z,101493.34
2022-08-30T14:46:30.506Z,101485.94
2022-08-30T14:49:50.937Z,101509.94
2022-08-30T14:51:53.843Z,101486.97
2022-08-30T14:53:56.426Z,101486.03
2022-08-30T14:55:58.987Z,101408.06
2022-08-30T14:58:02.142Z,101508.84
2022-08-30T15:00:12.640Z,101459.47
2022-08-30T15:02:15.191Z,101470.69
2022-08-30T15:04:18.512Z,101515.53
2022-08-30T15:06:26.340Z,101420.69
2022-08-30T15:08:29.339Z,101448.81
2022-08-30T15:10:32.029Z,101353.19
2022-08-30T15:12:35.299Z,101512.38
2022-08-30T15:14:37.952Z,101502.97
2022-08-30T15:16:41.084Z,101399.31
2022-08-30T15:18:44.016Z,101405.84
2022-08-30T15:20:50.648Z,101436.84
2022-08-30T15:22:53.525Z,101473.22
2022-08-30T15:24:56.116Z,101421.69
2022-08-30T15:27:00.521Z,101492.50
2022-08-30T15:29:03.660Z,101482.22
2022-08-30T15:31:09.604Z,101482.75
2022-08-30T15:33:12.331Z,101436.56
2022-08-30T15:35:15.019Z,101493.00
2022-08-30T15:37:22.418Z,101410.47
2022-08-30T15:39:25.122Z,101397.09
2022-08-30T15:41:29.074Z,101400.78
2022-08-30T15:43:32.492Z,101509.63
2022-08-30T15:45:43.605Z,101483.81
2022-08-30T15:47:46.584Z,101409.28
2022-08-30T15:49:57.373Z,101506.91
2022-08-30T15:52:04.671Z,101437.78
2022-08-30T15:54:07.372Z,101457.22
2022-08-30T15:56:21.103Z,101492.63
2022-08-30T15:58:23.682Z,101496.19
2022-08-30T16:00:26.265Z,101478.28
2022-08-30T16:02:28.914Z,101480.69
2022-08-30T16:04:31.745Z,101473.69
2022-08-30T16:06:37.427Z,101486.41
2022-08-30T16:08:41.002Z,101477.97
2022-08-30T16:11:15.014Z,101491.47
2022-08-30T16:13:18.198Z,101490.03
2022-08-30T16:15:20.979Z,101409.59
2022-08-30T16:17:24.148Z,101506.72
2022-08-30T16:19:27.846Z,101507.88
2022-08-30T16:21:34.162Z,101397.56
2022-08-30T16:23:39.536Z,101515.00
2022-08-30T16:25:42.148Z,101412.06
2022-08-30T16:27:45.251Z,101443.94
2022-08-30T16:29:47.949Z,101485.28
2022-08-30T16:31:52.763Z,101423.34
2022-08-30T16:34:02.373Z,101498.47
2022-08-30T16:36:06.832Z,101489.44
2022-08-30T16:38:09.416Z,101503.56
2022-08-30T16:40:12.491Z,101467.34
2022-08-30T16:42:20.864Z,101468.94
2022-08-30T16:44:24.046Z,101475.97
2022-08-30T16:46:33.391Z,101488.91
2022-08-30T16:48:36.812Z,101503.84
2022-08-30T16:50:43.869Z,101401.81
2022-08-30T16:52:46.418Z,101417.88
2022-08-30T16:54:52.253Z,101483.66
2022-08-30T16:56:55.639Z,101457.91
2022-08-30T16:59:01.975Z,101501.56
2022-08-30T17:01:10.641Z,101499.16
2022-08-30T17:03:13.778Z,101464.44
2022-08-30T17:05:16.355Z,101409.31
2022-08-30T17:07:22.342Z,101486.44
2022-08-30T17:09:25.457Z,101447.94
2022-08-30T17:11:28.234Z,101472.66
2022-08-30T17:13:31.777Z,101501.41
2022-08-30T17:15:35.831Z,101463.75
2022-08-30T17:17:39.264Z,101491.47
2022-08-30T17:20:15.890Z,101512.88
2022-08-30T17:22:18.452Z,101503.38
2022-08-30T17:24:24.633Z,101479.47
2022-08-30T17:26:28.211Z,101504.00
2022-08-30T17:28:31.101Z,101422.13
2022-08-30T17:30:33.994Z,101509.91
2022-08-30T17:32:36.629Z,101510.78
2022-08-30T17:34:39.327Z,101490.25
2022-08-30T17:36:42.388Z,101502.03
2022-08-30T17:38:46.037Z,101509.69
2022-08-30T17:40:48.872Z,101542.38
2022-08-30T17:42:52.087Z,101501.97
2022-08-30T17:44:55.147Z,101542.91
2022-08-30T17:46:58.609Z,101533.09
2022-08-30T17:49:03.131Z,101542.94
2022-08-30T17:51:15.934Z,101521.19
2022-08-30T17:53:18.597Z,101532.38
2022-08-30T17:55:21.781Z,101499.97
2022-08-30T17:57:25.088Z,101495.81
2022-08-30T17:59:31.535Z,101552.31
2022-08-30T18:01:35.439Z,101536.00
2022-08-30T18:03:38.526Z,101523.53
2022-08-30T18:06:05.316Z,101557.34
2022-08-30T18:08:08.278Z,101532.31
2022-08-30T18:10:13.421Z,101510.31
2022-08-30T18:12:16.121Z,101457.66
2022-08-30T18:14:26.296Z,101492.75
2022-08-30T18:16:35.065Z,101577.47
2022-08-30T18:19:09.532Z,101552.16
2022-08-30T18:21:14.799Z,101527.00
2022-08-30T18:23:17.455Z,101524.84
2022-08-30T18:25:30.194Z,101559.22
2022-08-30T18:27:32.841Z,101527.94
2022-08-30T18:29:41.953Z,101527.69
2022-08-30T18:31:45.585Z,101544.53
2022-08-30T18:33:48.305Z,101579.44
2022-08-30T18:35:57.204Z,101553.34
2022-08-30T18:37:59.783Z,101480.22
2022-08-30T18:40:03.042Z,101556.41
2022-08-30T18:42:06.838Z,101569.22
2022-08-30T18:44:26.743Z,101564.72
2022-08-30T18:46:30.703Z,101571.69
2022-08-30T18:48:35.012Z,101592.00
2022-08-30T18:50:40.433Z,101569.69
2022-08-30T18:52:45.074Z,101489.31
2022-08-30T18:54:53.055Z,101588.66
2022-08-30T18:56:56.058Z,101580.94
2022-08-30T18:58:58.756Z,101478.97
2022-08-30T19:01:02.439Z,101596.47
2022-08-30T19:03:06.237Z,101547.47
2022-08-30T19:05:08.983Z,101502.72
2022-08-30T19:07:15.279Z,101600.25
2022-08-30T19:09:17.855Z,101569.59
2022-08-30T19:11:20.550Z,101482.78
2022-08-30T19:13:23.629Z,101520.88
2022-08-30T19:15:27.902Z,101526.47
2022-08-30T19:17:30.794Z,101573.34
2022-08-30T19:19:35.122Z,101516.91
2022-08-30T19:21:39.643Z,101455.91
2022-08-30T19:23:42.392Z,101596.31
2022-08-30T19:25:45.310Z,101572.31
2022-08-30T19:27:54.160Z,101559.78
2022-08-30T19:29:57.017Z,101597.91
2022-08-30T19:31:59.748Z,101547.06
2022-08-30T19:34:10.045Z,101604.59
2022-08-30T19:36:12.603Z,101559.03
2022-08-30T19:38:15.864Z,101478.81
2022-08-30T19:40:21.286Z,101574.78
2022-08-30T19:42:23.993Z,101571.06
2022-08-30T19:44:26.599Z,101590.78
2022-08-30T19:46:30.450Z,101506.03
2022-08-30T19:48:39.049Z,101578.53
2022-08-30T19:50:48.927Z,101586.00
2022-08-30T19:52:54.781Z,101528.94
2022-08-30T19:55:02.793Z,101582.28
2022-08-30T19:57:20.391Z,101587.63
2022-08-30T19:59:23.164Z,101582.03
2022-08-30T20:01:32.865Z,101583.91
2022-08-30T20:03:38.204Z,101560.94
2022-08-30T20:05:42.647Z,101500.16
2022-08-30T20:07:51.158Z,101575.09
2022-08-30T20:10:47.214Z,101607.34
2022-08-30T20:12:50.256Z,101563.84
2022-08-30T20:14:53.167Z,101591.06
2022-08-30T20:16:59.436Z,101567.84
2022-08-30T20:19:08.103Z,101602.53
2022-08-30T20:21:13.933Z,101561.72
2022-08-30T20:23:19.787Z,101558.00
2022-08-30T20:25:25.257Z,101520.38
2022-08-30T20:27:28.051Z,101604.94
2022-08-30T20:29:30.838Z,101555.03
2022-08-30T20:31:34.410Z,101572.09
2022-08-30T20:33:38.170Z,101612.63
2022-08-30T20:35:48.369Z,101616.91
2022-08-30T20:37:51.910Z,101583.25
2022-08-30T20:39:57.627Z,101593.66
2022-08-30T20:42:00.269Z,101606.75
2022-08-30T20:44:06.593Z,101615.25
2022-08-30T20:46:19.630Z,101581.34
2022-08-30T20:48:23.895Z,101624.84
2022-08-30T20:50:53.678Z,101578.41
2022-08-30T20:52:56.281Z,101600.00
2022-08-30T20:54:58.843Z,101604.00
2022-08-30T20:57:11.410Z,101591.72
2022-08-30T20:59:14.977Z,101626.34
2022-08-30T21:01:19.080Z,101592.44
2022-08-30T21:03:29.677Z,101623.44
2022-08-30T21:05:37.032Z,101593.78
2022-08-30T21:07:41.072Z,101540.63
2022-08-30T21:10:37.629Z,101628.19
2022-08-30T21:12:40.260Z,101613.47
2022-08-30T21:14:42.871Z,101602.50
2022-08-30T21:16:45.532Z,101630.78
2022-08-30T21:18:48.240Z,101523.78
2022-08-30T21:20:50.909Z,101625.94
2022-08-30T21:22:53.646Z,101546.41
2022-08-30T21:24:56.370Z,101541.28
2022-08-30T21:26:59.699Z,101639.25
2022-08-30T21:29:02.338Z,101619.72
2022-08-30T21:31:26.353Z,101606.41
2022-08-30T21:33:28.989Z,101635.19
2022-08-30T21:36:04.953Z,101630.66
2022-08-30T21:38:08.965Z,101620.22
2022-08-30T21:40:14.823Z,101645.03
2022-08-30T21:42:18.393Z,101607.38
2022-08-30T21:44:24.210Z,101527.75
2022-08-30T21:46:29.474Z,101569.47
2022-08-30T21:48:32.784Z,101647.44
2022-08-30T21:50:42.190Z,101661.28
2022-08-30T21:52:44.834Z,101659.66
2022-08-30T21:54:48.610Z,101642.03
2022-08-30T21:56:53.903Z,101597.97
2022-08-30T21:58:56.783Z,101590.78
2022-08-30T22:00:59.437Z,101621.78
2022-08-30T22:03:02.111Z,101638.34
2022-08-30T22:05:05.102Z,101543.34
2022-08-30T22:07:33.120Z,101650.94
2022-08-30T22:09:36.400Z,101623.97
2022-08-30T22:11:39.084Z,101619.16
2022-08-30T22:13:45.526Z,101682.16
2022-08-30T22:15:50.712Z,101653.03
2022-08-30T22:17:54.032Z,101624.69
2022-08-30T22:19:56.635Z,101648.72
2022-08-30T22:22:00.813Z,101665.28
2022-08-30T22:24:04.915Z,101681.56
2022-08-30T22:26:10.150Z,101634.06
2022-08-30T22:29:03.606Z,101665.56
2022-08-30T22:31:11.100Z,101667.66
2022-08-30T22:33:16.221Z,101588.06
2022-08-30T22:35:19.629Z,101624.34
2022-08-30T22:37:22.235Z,101638.19
2022-08-30T22:39:25.657Z,101661.16
2022-08-30T22:41:31.639Z,101575.63
2022-08-30T22:43:34.357Z,101593.19
2022-08-30T22:45:38.245Z,101665.31
2022-08-30T22:47:41.120Z,101566.41
2022-08-30T22:49:43.876Z,101658.84
2022-08-30T22:51:46.634Z,101656.16
2022-08-30T22:53:50.205Z,101578.63
2022-08-30T22:55:52.772Z,101670.28
2022-08-30T22:57:55.396Z,101633.75
2022-08-30T22:59:58.023Z,101656.66
2022-08-30T23:02:00.888Z,101660.94
2022-08-30T23:04:09.154Z,101631.53
2022-08-30T23:06:11.763Z,101649.72
2022-08-30T23:08:14.348Z,101637.25
2022-08-30T23:10:17.362Z,101661.00
2022-08-30T23:12:19.942Z,101625.44
2022-08-30T23:14:23.315Z,101606.97
2022-08-30T23:16:25.912Z,101657.72
2022-08-30T23:18:28.517Z,101647.38
2022-08-30T23:20:31.306Z,101642.88
2022-08-30T23:22:34.007Z,101648.41
2022-08-30T23:24:55.197Z,101651.91
2022-08-30T23:27:17.126Z,101549.31
2022-08-30T23:29:39.580Z,101656.72
2022-08-30T23:32:02.576Z,101613.44
2022-08-30T23:34:23.875Z,101514.34
2022-08-30T23:36:44.892Z,101663.97
2022-08-30T23:39:05.921Z,101655.66
2022-08-30T23:41:32.223Z,101637.47
2022-08-30T23:43:55.453Z,101698.63
2022-08-30T23:46:19.611Z,101660.44
2022-08-30T23:48:41.048Z,101619.50
2022-08-30T23:51:12.013Z,101686.03
2022-08-30T23:53:43.820Z,101660.81
2022-08-30T23:56:05.176Z,101667.28
2022-08-30T23:58:27.514Z,101648.56
